Time;durP1;ratioP1;P1;durP2;ratioP2;P2;SDS_P1;SDS_P2;PMS_P1;PMS_P2;Temp;Humidity;BMP_temperature;BMP_pressure;BME280_temperature;BME280_humidity;BME280_pressure;Samples;Min_cycle;Max_cycle;Signal;HPM_P1;HPM_P2
2023/11/13 06:01:04;;;;;;;20.83;10.40;;;;;;;;;;5664064;23;20484;-70
2023/11/13 06:03:31;;;;;;;29.20;13.40;;;;;;;;;;4975140;28;20458;-69
2023/11/13 06:05:57;;;;;;;24.07;9.60;;;;;;;;;;4975523;28;20432;-69
2023/11/13 06:08:23;;;;;;;19.80;9.97;;;;;;;;;;4975274;28;20506;-69
2023/11/13 06:10:49;;;;;;;24.60;11.20;;;;;;;;;;4968354;28;20440;-69
2023/11/13 06:13:14;;;;;;;21.77;10.90;;;;;;;;;;4936370;29;20426;-69
2023/11/13 06:15:40;;;;;;;23.63;12.93;;;;;;;;;;4944745;29;20420;-69
2023/11/13 06:18:09;;;;;;;22.23;10.43;;;;;;;;;;4956243;29;20488;-69
2023/11/13 06:20:35;;;;;;;20.37;11.07;;;;;;;;;;4955349;28;20424;-69
2023/11/13 06:23:02;;;;;;;20.30;9.77;;;;;;;;;;4955040;29;20428;-69
2023/11/13 06:25:28;;;;;;;28.37;14.00;;;;;;;;;;4956282;28;20533;-69
2023/11/13 06:27:56;;;;;;;16.10;9.00;;;;;;;;;;4955498;29;20420;-69
2023/11/13 06:30:22;;;;;;;20.90;10.63;;;;;;;;;;4953879;29;20918;-69
2023/11/13 06:32:48;;;;;;;16.50;9.00;;;;;;;;;;4953964;29;20436;-69
2023/11/13 06:35:16;;;;;;;21.20;9.07;;;;;;;;;;4955117;29;20850;-69
2023/11/13 06:37:42;;;;;;;23.53;10.27;;;;;;;;;;4955044;29;20500;-70
2023/11/13 06:40:08;;;;;;;17.83;7.53;;;;;;;;;;4954961;29;20417;-70
2023/11/13 06:42:34;;;;;;;17.97;6.73;;;;;;;;;;4955346;28;20420;-70
2023/11/13 06:45:00;;;;;;;16.43;8.20;;;;;;;;;;4937582;29;20969;-70
2023/11/13 06:47:26;;;;;;;12.87;5.90;;;;;;;;;;4936191;29;20417;-70
2023/11/13 06:49:53;;;;;;;17.40;6.47;;;;;;;;;;4936177;29;20410;-70
2023/11/13 06:52:21;;;;;;;24.83;7.07;;;;;;;;;;4936221;29;20465;-70
2023/11/13 06:54:47;;;;;;;30.97;7.30;;;;;;;;;;4935798;29;20948;-71
2023/11/13 06:57:13;;;;;;;24.10;8.33;;;;;;;;;;4936212;29;20789;-71
2023/11/13 06:59:40;;;;;;;28.60;6.40;;;;;;;;;;4935945;29;20410;-70
2023/11/13 07:02:06;;;;;;;24.60;6.97;;;;;;;;;;4936736;29;20469;-69
2023/11/13 07:04:32;;;;;;;19.20;5.33;;;;;;;;;;4935383;29;20464;-71
2023/11/13 07:07:01;;;;;;;22.83;6.57;;;;;;;;;;4936049;29;20429;-72
2023/11/13 07:09:27;;;;;;;12.47;6.57;;;;;;;;;;4935711;29;20864;-72
2023/11/13 07:11:53;;;;;;;17.50;7.03;;;;;;;;;;4935327;29;20442;-70
2023/11/13 07:14:19;;;;;;;11.17;5.70;;;;;;;;;;4935867;29;20949;-70
2023/11/13 07:16:46;;;;;;;15.63;6.10;;;;;;;;;;4936054;29;20433;-70
2023/11/13 07:19:14;;;;;;;17.27;6.10;;;;;;;;;;4935909;29;20417;-70
2023/11/13 07:21:41;;;;;;;16.33;7.67;;;;;;;;;;4935633;29;20842;-70
2023/11/13 07:24:09;;;;;;;14.87;7.40;;;;;;;;;;4937267;29;20473;-70
2023/11/13 07:26:35;;;;;;;20.23;8.43;;;;;;;;;;4953520;28;20784;-70
2023/11/13 07:29:00;;;;;;;17.53;5.77;;;;;;;;;;4953230;28;20429;-70
2023/11/13 07:31:26;;;;;;;29.23;8.27;;;;;;;;;;4950805;28;20499;-70
2023/11/13 07:33:54;;;;;;;14.07;5.90;;;;;;;;;;4945712;28;20455;-70
2023/11/13 07:36:20;;;;;;;19.63;7.57;;;;;;;;;;4948662;28;20413;-70
2023/11/13 07:38:46;;;;;;;17.87;6.90;;;;;;;;;;4945566;29;20460;-70
2023/11/13 07:41:13;;;;;;;14.40;7.23;;;;;;;;;;4947468;28;20531;-70
2023/11/13 07:43:39;;;;;;;20.83;8.17;;;;;;;;;;4946685;29;20468;-72
2023/11/13 07:46:09;;;;;;;16.80;7.57;;;;;;;;;;4954119;29;20420;-72
2023/11/13 07:48:35;;;;;;;21.97;8.93;;;;;;;;;;4954214;29;20451;-72
2023/11/13 07:51:02;;;;;;;21.60;10.00;;;;;;;;;;4949398;29;20947;-71
2023/11/13 07:53:28;;;;;;;26.03;11.53;;;;;;;;;;4946777;29;20499;-71
2023/11/13 07:55:55;;;;;;;23.53;8.90;;;;;;;;;;4953839;29;20500;-70
2023/11/13 07:58:21;;;;;;;20.47;8.20;;;;;;;;;;4936665;28;20480;-71
2023/11/13 08:00:47;;;;;;;17.33;7.60;;;;;;;;;;4937205;29;20871;-72
2023/11/13 08:03:16;;;;;;;20.37;8.00;;;;;;;;;;4950460;29;20421;-72
2023/11/13 08:05:42;;;;;;;22.23;8.40;;;;;;;;;;4972238;28;20416;-71
2023/11/13 08:08:12;;;;;;;25.23;10.97;;;;;;;;;;4972854;28;20412;-72
2023/11/13 08:10:39;;;;;;;34.03;13.07;;;;;;;;;;4961470;28;20455;-71
2023/11/13 08:13:05;;;;;;;28.77;13.23;;;;;;;;;;4953686;28;20433;-71
2023/11/13 08:15:34;;;;;;;30.53;12.60;;;;;;;;;;4952572;28;20425;-71
2023/11/13 08:18:00;;;;;;;38.07;12.90;;;;;;;;;;4953567;28;20413;-71
2023/11/13 08:20:26;;;;;;;34.10;11.93;;;;;;;;;;4953487;28;20958;-71
2023/11/13 08:22:56;;;;;;;30.10;12.27;;;;;;;;;;4953265;29;20417;-71
2023/11/13 08:25:25;;;;;;;27.10;11.17;;;;;;;;;;4953289;28;21045;-71
2023/11/13 08:27:54;;;;;;;26.73;10.57;;;;;;;;;;4942286;29;20421;-74
2023/11/13 08:30:23;;;;;;;26.70;9.70;;;;;;;;;;4948573;28;20417;-73
2023/11/13 08:32:52;;;;;;;37.57;13.43;;;;;;;;;;4950834;29;20452;-73
2023/11/13 08:35:19;;;;;;;29.40;12.00;;;;;;;;;;4944933;28;20436;-72
2023/11/13 08:37:45;;;;;;;30.80;9.70;;;;;;;;;;4951712;29;20928;-71
2023/11/13 08:40:14;;;;;;;33.00;11.77;;;;;;;;;;4949889;28;20428;-72
2023/11/13 08:42:41;;;;;;;33.70;11.30;;;;;;;;;;4953430;28;20413;-73
2023/11/13 08:45:12;;;;;;;43.70;12.90;;;;;;;;;;4954004;28;21027;-71
2023/11/13 08:47:39;;;;;;;22.17;10.40;;;;;;;;;;4940509;28;20485;-71
2023/11/13 08:50:08;;;;;;;40.43;13.40;;;;;;;;;;4949525;28;20416;-72
2023/11/13 08:52:35;;;;;;;29.80;12.97;;;;;;;;;;4951893;28;20508;-71
2023/11/13 08:55:03;;;;;;;42.43;13.80;;;;;;;;;;4947702;28;20508;-71
2023/11/13 08:57:29;;;;;;;35.47;13.00;;;;;;;;;;4942836;29;20416;-69
2023/11/13 08:59:55;;;;;;;34.70;13.93;;;;;;;;;;4956716;28;20924;-70
2023/11/13 09:02:25;;;;;;;24.67;9.60;;;;;;;;;;4955325;28;20484;-71
2023/11/13 09:04:51;;;;;;;40.13;11.37;;;;;;;;;;4948093;28;20548;-71
2023/11/13 09:07:17;;;;;;;30.63;9.07;;;;;;;;;;4956807;29;20503;-68
2023/11/13 09:09:43;;;;;;;112.27;37.63;;;;;;;;;;4957072;28;20503;-71
2023/11/13 09:12:12;;;;;;;33.17;10.23;;;;;;;;;;4954770;28;20541;-69
2023/11/13 09:14:38;;;;;;;32.00;9.70;;;;;;;;;;4950236;28;20416;-69
2023/11/13 09:17:12;;;;;;;21.03;6.40;;;;;;;;;;4957715;29;20831;-69
2023/11/13 09:19:41;;;;;;;44.37;15.80;;;;;;;;;;4977671;28;20432;-69
2023/11/13 09:22:09;;;;;;;22.50;8.27;;;;;;;;;;4980710;28;20508;-69
2023/11/13 09:24:36;;;;;;;25.50;6.63;;;;;;;;;;4981355;28;20487;-70
2023/11/13 09:27:03;;;;;;;15.37;5.40;;;;;;;;;;4962486;29;20791;-70
2023/11/13 09:29:29;;;;;;;16.60;4.87;;;;;;;;;;4962689;28;20420;-70
2023/11/13 09:31:56;;;;;;;24.50;7.60;;;;;;;;;;4962931;28;20486;-69
2023/11/13 09:34:22;;;;;;;12.03;4.90;;;;;;;;;;4958411;28;20464;-70
2023/11/13 09:36:48;;;;;;;20.27;6.20;;;;;;;;;;4954854;29;20413;-69
2023/11/13 09:39:14;;;;;;;19.33;8.57;;;;;;;;;;4956952;28;20405;-70
2023/11/13 09:41:45;;;;;;;20.63;7.47;;;;;;;;;;4955047;28;20539;-70
2023/11/13 09:44:11;;;;;;;19.13;6.27;;;;;;;;;;4956132;28;20571;-70
2023/11/13 09:46:39;;;;;;;19.30;6.07;;;;;;;;;;4956003;29;20409;-70
2023/11/13 09:49:10;;;;;;;31.30;11.20;;;;;;;;;;4955982;29;20448;-70
2023/11/13 09:51:37;;;;;;;19.97;4.87;;;;;;;;;;4956037;28;20523;-69
2023/11/13 09:54:04;;;;;;;41.67;14.83;;;;;;;;;;4955432;29;20838;-69
2023/11/13 09:56:30;;;;;;;19.77;6.57;;;;;;;;;;4939192;28;20425;-70
2023/11/13 09:58:57;;;;;;;31.73;10.43;;;;;;;;;;4954940;29;20791;-70
2023/11/13 10:01:24;;;;;;;22.07;6.50;;;;;;;;;;4951900;28;20955;-69
2023/11/13 10:03:50;;;;;;;13.83;6.40;;;;;;;;;;4955398;29;20787;-69
2023/11/13 10:06:16;;;;;;;21.13;5.17;;;;;;;;;;4955759;28;20420;-68
2023/11/13 10:08:43;;;;;;;14.83;5.20;;;;;;;;;;4955712;29;20504;-70
2023/11/13 10:11:10;;;;;;;29.93;8.70;;;;;;;;;;4940038;28;20437;-69
2023/11/13 10:13:36;;;;;;;14.10;5.57;;;;;;;;;;4936541;29;20417;-69
2023/11/13 10:16:18;;;;;;;14.10;6.67;;;;;;;;;;4944645;28;20914;-69
2023/11/13 10:18:44;;;;;;;20.33;5.50;;;;;;;;;;4936728;29;20421;-69
2023/11/13 10:21:19;;;;;;;30.93;8.80;;;;;;;;;;4954357;28;20602;-71
2023/11/13 10:23:45;;;;;;;10.50;4.77;;;;;;;;;;4959822;29;20458;-70
2023/11/13 10:26:14;;;;;;;22.03;4.83;;;;;;;;;;4958372;28;20421;-70
2023/11/13 10:28:41;;;;;;;19.83;5.00;;;;;;;;;;4958114;28;20420;-70
2023/11/13 10:31:16;;;;;;;17.07;5.60;;;;;;;;;;4955543;28;20441;-71
2023/11/13 10:33:55;;;;;;;10.47;4.87;;;;;;;;;;4955234;29;20435;-70
2023/11/13 10:36:22;;;;;;;13.63;5.00;;;;;;;;;;4955322;28;20472;-72
2023/11/13 10:38:50;;;;;;;21.30;7.13;;;;;;;;;;4955368;29;20436;-70
2023/11/13 10:41:27;;;;;;;55.63;20.10;;;;;;;;;;4955192;28;20960;-71
2023/11/13 10:43:53;;;;;;;19.27;7.67;;;;;;;;;;4953287;28;20587;-72
2023/11/13 10:46:29;;;;;;;14.97;5.60;;;;;;;;;;4938415;29;20414;-71
2023/11/13 10:48:56;;;;;;;10.40;5.10;;;;;;;;;;4939820;29;20421;-71
2023/11/13 10:51:25;;;;;;;10.50;4.80;;;;;;;;;;4954566;28;20440;-70
2023/11/13 10:53:53;;;;;;;9.23;4.37;;;;;;;;;;4954519;28;20495;-72
2023/11/13 10:56:19;;;;;;;11.40;3.87;;;;;;;;;;4954688;28;20475;-71
2023/11/13 10:58:47;;;;;;;11.70;4.50;;;;;;;;;;4954326;29;20425;-70
2023/11/13 11:01:18;;;;;;;9.47;4.20;;;;;;;;;;4949060;28;20462;-71
2023/11/13 11:03:45;;;;;;;10.13;4.00;;;;;;;;;;4935293;29;20595;-70
2023/11/13 11:06:14;;;;;;;16.03;4.33;;;;;;;;;;4944899;28;20472;-70
2023/11/13 11:08:43;;;;;;;8.47;3.33;;;;;;;;;;4952754;28;20417;-70
2023/11/13 11:11:09;;;;;;;10.60;4.43;;;;;;;;;;4954059;28;20527;-70
2023/11/13 11:13:39;;;;;;;6.00;3.77;;;;;;;;;;4954139;29;20788;-70
2023/11/13 11:16:05;;;;;;;9.23;3.30;;;;;;;;;;4954365;28;20610;-70
2023/11/13 11:18:37;;;;;;;5.30;3.30;;;;;;;;;;4954704;29;20976;-70
2023/11/13 11:21:10;;;;;;;10.70;3.50;;;;;;;;;;4952694;28;20452;-73
2023/11/13 11:23:46;;;;;;;16.07;5.20;;;;;;;;;;4952627;29;20823;-70
2023/11/13 11:26:12;;;;;;;19.03;6.07;;;;;;;;;;4940379;29;20463;-69
2023/11/13 11:28:43;;;;;;;16.47;4.97;;;;;;;;;;4935174;29;20546;-70
2023/11/13 11:31:29;;;;;;;12.00;4.43;;;;;;;;;;4934966;29;20430;-70
2023/11/13 11:33:55;;;;;;;14.77;4.40;;;;;;;;;;4934840;29;20409;-72
2023/11/13 11:36:22;;;;;;;14.00;3.93;;;;;;;;;;4935055;29;20498;-71
2023/11/13 11:39:09;;;;;;;8.23;3.83;;;;;;;;;;4942721;29;20417;-70
2023/11/13 11:41:42;;;;;;;10.90;3.70;;;;;;;;;;4953928;28;20439;-70
2023/11/13 11:44:11;;;;;;;12.17;4.30;;;;;;;;;;4953855;29;20812;-70
2023/11/13 11:46:46;;;;;;;8.23;3.17;;;;;;;;;;4934924;29;20470;-69
2023/11/13 11:49:25;;;;;;;7.23;2.90;;;;;;;;;;4934831;29;20414;-70
2023/11/13 11:52:05;;;;;;;9.77;3.23;;;;;;;;;;4934595;29;20799;-70
2023/11/13 11:54:33;;;;;;;7.20;3.13;;;;;;;;;;4934609;29;20418;-70
2023/11/13 11:57:10;;;;;;;6.53;3.00;;;;;;;;;;4934782;29;20500;-69
2023/11/13 11:59:36;;;;;;;11.63;4.40;;;;;;;;;;4934704;29;20424;-71
2023/11/13 12:02:03;;;;;;;6.60;3.03;;;;;;;;;;4934573;29;20446;-70
2023/11/13 12:04:33;;;;;;;10.50;3.40;;;;;;;;;;4934483;29;20469;-69
2023/11/13 12:07:02;;;;;;;7.77;3.33;;;;;;;;;;4934676;29;20413;-70
2023/11/13 12:09:28;;;;;;;6.97;3.40;;;;;;;;;;4933519;29;20410;-70
2023/11/13 12:11:54;;;;;;;9.43;2.87;;;;;;;;;;4934495;29;20525;-71
2023/11/13 12:14:21;;;;;;;12.00;3.37;;;;;;;;;;4934638;29;20437;-70
2023/11/13 12:16:50;;;;;;;7.80;3.67;;;;;;;;;;4934982;29;20832;-70
2023/11/13 12:19:16;;;;;;;9.23;3.90;;;;;;;;;;4934001;29;20422;-71
2023/11/13 12:21:43;;;;;;;8.97;4.17;;;;;;;;;;4934630;29;20497;-71
2023/11/13 12:24:10;;;;;;;9.20;4.80;;;;;;;;;;4934009;29;20476;-71
2023/11/13 12:26:41;;;;;;;12.77;4.03;;;;;;;;;;4934540;29;20441;-71
2023/11/13 12:29:17;;;;;;;7.60;3.57;;;;;;;;;;4933392;29;20421;-72
2023/11/13 12:31:48;;;;;;;6.30;3.13;;;;;;;;;;4945706;28;20503;-71
2023/11/13 12:34:17;;;;;;;8.00;3.40;;;;;;;;;;4953368;29;20416;-71
2023/11/13 12:36:46;;;;;;;15.40;4.20;;;;;;;;;;4953203;29;20409;-71
2023/11/13 12:39:16;;;;;;;16.53;3.57;;;;;;;;;;4953706;29;20424;-71
2023/11/13 12:41:42;;;;;;;13.30;3.43;;;;;;;;;;4953519;28;20433;-71
2023/11/13 12:44:08;;;;;;;3.53;2.50;;;;;;;;;;4953748;29;20474;-70
2023/11/13 12:46:37;;;;;;;5.37;3.10;;;;;;;;;;4953317;29;20911;-71
2023/11/13 12:49:03;;;;;;;5.03;2.63;;;;;;;;;;4951918;29;20499;-71
2023/11/13 12:51:34;;;;;;;5.17;2.60;;;;;;;;;;4953375;28;20569;-70
2023/11/13 12:54:00;;;;;;;6.27;3.10;;;;;;;;;;4953223;29;21077;-71
2023/11/13 12:56:28;;;;;;;12.97;3.20;;;;;;;;;;4952930;29;20491;-70
2023/11/13 12:58:55;;;;;;;6.43;2.50;;;;;;;;;;4948172;28;20778;-70
2023/11/13 13:01:21;;;;;;;18.13;3.10;;;;;;;;;;4951485;29;20465;-70
2023/11/13 13:03:50;;;;;;;6.93;2.93;;;;;;;;;;4940685;28;20551;-71
2023/11/13 13:06:16;;;;;;;7.63;2.93;;;;;;;;;;4952944;29;20421;-70
2023/11/13 13:08:42;;;;;;;15.97;9.17;;;;;;;;;;4952957;28;20464;-70
2023/11/13 13:11:09;;;;;;;18.80;8.60;;;;;;;;;;4939474;29;20437;-70
2023/11/13 13:13:36;;;;;;;22.90;10.83;;;;;;;;;;4934772;28;20414;-70
2023/11/13 13:16:04;;;;;;;15.40;3.60;;;;;;;;;;4952985;29;20416;-71
2023/11/13 13:18:33;;;;;;;3.17;2.53;;;;;;;;;;4952841;28;20409;-70
2023/11/13 13:20:59;;;;;;;3.47;2.20;;;;;;;;;;4952776;28;20460;-70
2023/11/13 13:23:26;;;;;;;6.40;2.80;;;;;;;;;;4943230;29;20428;-70
2023/11/13 13:25:54;;;;;;;7.53;3.37;;;;;;;;;;4954796;28;20499;-70
2023/11/13 13:28:20;;;;;;;9.20;3.40;;;;;;;;;;4953084;29;20417;-71
2023/11/13 13:30:49;;;;;;;6.07;2.93;;;;;;;;;;4954630;28;20935;-70
2023/11/13 13:33:16;;;;;;;6.37;2.77;;;;;;;;;;4955917;29;20427;-71
2023/11/13 13:35:44;;;;;;;6.90;3.83;;;;;;;;;;4956625;28;20421;-71
2023/11/13 13:38:10;;;;;;;3.90;2.57;;;;;;;;;;4951527;29;20465;-70
2023/11/13 13:40:45;;;;;;;4.83;2.37;;;;;;;;;;4952997;28;20488;-70
2023/11/13 13:43:11;;;;;;;3.87;1.77;;;;;;;;;;4956097;29;20436;-70
2023/11/13 13:45:42;;;;;;;6.17;2.23;;;;;;;;;;4957357;28;20559;-70
2023/11/13 13:48:09;;;;;;;2.67;2.07;;;;;;;;;;4959220;29;20460;-71
2023/11/13 13:50:35;;;;;;;2.30;1.70;;;;;;;;;;4957478;28;20469;-70
2023/11/13 13:53:02;;;;;;;2.93;1.87;;;;;;;;;;4956794;29;20436;-70
2023/11/13 13:55:32;;;;;;;3.30;1.90;;;;;;;;;;4961090;28;20465;-71
2023/11/13 13:58:01;;;;;;;2.70;1.60;;;;;;;;;;4971219;29;20500;-71
2023/11/13 14:00:32;;;;;;;4.00;1.93;;;;;;;;;;4965502;28;20511;-73
2023/11/13 14:03:05;;;;;;;12.10;2.30;;;;;;;;;;4965667;29;20912;-70
2023/11/13 14:05:31;;;;;;;3.27;1.87;;;;;;;;;;4957261;28;20933;-70
2023/11/13 14:07:58;;;;;;;2.80;1.80;;;;;;;;;;4947486;29;20422;-71
2023/11/13 14:10:25;;;;;;;4.80;1.50;;;;;;;;;;4955821;28;20425;-71
2023/11/13 14:12:51;;;;;;;5.13;1.80;;;;;;;;;;4955819;29;20775;-71
2023/11/13 14:15:17;;;;;;;1.97;1.60;;;;;;;;;;4952081;28;20421;-71
2023/11/13 14:17:44;;;;;;;2.83;1.30;;;;;;;;;;4955787;29;20452;-71
2023/11/13 14:20:16;;;;;;;3.67;1.90;;;;;;;;;;4955558;28;20428;-71
2023/11/13 14:22:46;;;;;;;1.93;1.30;;;;;;;;;;4955607;29;20444;-71
2023/11/13 14:25:16;;;;;;;3.73;1.87;;;;;;;;;;4961220;28;20514;-71
2023/11/13 14:27:42;;;;;;;2.87;1.67;;;;;;;;;;4974928;28;20404;-71
2023/11/13 14:30:11;;;;;;;6.00;2.00;;;;;;;;;;4973823;28;20426;-71
2023/11/13 14:32:36;;;;;;;1.47;1.20;;;;;;;;;;4974639;28;20416;-72
2023/11/13 14:35:03;;;;;;;6.07;1.77;;;;;;;;;;4972934;28;20422;-71
2023/11/13 14:37:29;;;;;;;1.93;1.57;;;;;;;;;;4956255;28;20417;-71
2023/11/13 14:39:55;;;;;;;2.83;1.70;;;;;;;;;;4955478;29;20423;-72
2023/11/13 14:42:24;;;;;;;2.97;1.93;;;;;;;;;;4954874;28;20742;-71
2023/11/13 14:44:50;;;;;;;5.00;1.67;;;;;;;;;;4955326;28;20469;-71
2023/11/13 14:47:18;;;;;;;8.03;1.80;;;;;;;;;;4939720;28;20777;-71
2023/11/13 14:49:44;;;;;;;2.90;1.50;;;;;;;;;;4936339;29;20417;-71
2023/11/13 14:52:12;;;;;;;3.20;2.33;;;;;;;;;;4953077;28;20804;-70
2023/11/13 14:54:40;;;;;;;3.80;2.00;;;;;;;;;;4943481;29;20429;-70
2023/11/13 14:57:06;;;;;;;2.17;1.97;;;;;;;;;;4952283;28;20424;-70
2023/11/13 14:59:32;;;;;;;3.30;2.07;;;;;;;;;;4954745;29;20448;-71
2023/11/13 15:01:58;;;;;;;5.17;2.60;;;;;;;;;;4954654;28;20519;-71
2023/11/13 15:04:24;;;;;;;2.73;1.80;;;;;;;;;;4954656;29;20564;-71
2023/11/13 15:06:50;;;;;;;2.33;1.77;;;;;;;;;;4953013;28;20492;-71
2023/11/13 15:09:16;;;;;;;4.37;2.33;;;;;;;;;;4954275;29;20421;-72
2023/11/13 15:11:51;;;;;;;5.27;1.83;;;;;;;;;;4954576;28;20988;-72
2023/11/13 15:14:17;;;;;;;2.10;1.80;;;;;;;;;;4954351;29;20444;-72
2023/11/13 15:16:43;;;;;;;8.47;2.10;;;;;;;;;;4953926;28;20428;-71
2023/11/13 15:19:09;;;;;;;3.67;2.40;;;;;;;;;;4936043;29;20429;-72
2023/11/13 15:21:35;;;;;;;4.90;2.20;;;;;;;;;;4935358;29;20500;-71
2023/11/13 15:24:01;;;;;;;2.93;2.13;;;;;;;;;;4935703;29;20509;-72
2023/11/13 15:26:27;;;;;;;5.33;2.20;;;;;;;;;;4936272;29;20410;-71
2023/11/13 15:28:53;;;;;;;2.50;1.90;;;;;;;;;;4945971;29;20479;-71
2023/11/13 15:31:19;;;;;;;3.63;2.10;;;;;;;;;;4955014;29;20444;-72
2023/11/13 15:33:45;;;;;;;2.70;2.13;;;;;;;;;;4954338;29;20421;-72
2023/11/13 15:36:11;;;;;;;4.33;2.20;;;;;;;;;;4938537;28;20425;-72
2023/11/13 15:38:37;;;;;;;2.20;1.90;;;;;;;;;;4942604;29;20425;-72
2023/11/13 15:41:04;;;;;;;7.00;2.27;;;;;;;;;;4954184;29;20519;-72
2023/11/13 15:43:30;;;;;;;5.20;2.10;;;;;;;;;;4952808;29;20424;-72
2023/11/13 15:45:56;;;;;;;5.43;3.13;;;;;;;;;;4954467;28;20409;-72
2023/11/13 15:48:22;;;;;;;4.33;2.70;;;;;;;;;;4944194;28;20910;-72
2023/11/13 15:50:48;;;;;;;12.27;2.77;;;;;;;;;;4943323;29;20440;-72
2023/11/13 15:53:14;;;;;;;4.70;2.20;;;;;;;;;;4953966;28;20512;-72
2023/11/13 15:55:40;;;;;;;3.00;2.20;;;;;;;;;;4954306;29;20435;-73
2023/11/13 15:58:07;;;;;;;3.23;2.17;;;;;;;;;;4954343;28;20428;-73
2023/11/13 16:00:35;;;;;;;3.90;1.77;;;;;;;;;;4953789;29;20475;-72
2023/11/13 16:03:02;;;;;;;2.87;2.03;;;;;;;;;;4960602;28;20424;-71
2023/11/13 16:05:28;;;;;;;3.57;2.33;;;;;;;;;;4973147;28;20463;-71
2023/11/13 16:07:54;;;;;;;9.63;3.30;;;;;;;;;;4973040;28;20414;-71
2023/11/13 16:10:20;;;;;;;8.17;3.50;;;;;;;;;;4973504;28;20411;-71
2023/11/13 16:12:49;;;;;;;5.40;3.23;;;;;;;;;;4966445;28;20412;-71
2023/11/13 16:15:15;;;;;;;9.40;5.00;;;;;;;;;;4954041;29;20919;-70
2023/11/13 16:17:41;;;;;;;8.90;4.60;;;;;;;;;;4953838;28;20473;-71
2023/11/13 16:20:10;;;;;;;6.60;4.63;;;;;;;;;;4953461;29;20425;-71
2023/11/13 16:22:39;;;;;;;5.63;3.33;;;;;;;;;;4953620;28;20421;-71
2023/11/13 16:25:06;;;;;;;6.87;3.70;;;;;;;;;;4953763;29;20468;-71
2023/11/13 16:27:32;;;;;;;4.57;2.60;;;;;;;;;;4953809;28;20944;-71
2023/11/13 16:29:58;;;;;;;5.67;3.20;;;;;;;;;;4953877;29;20445;-71
2023/11/13 16:32:24;;;;;;;4.43;2.60;;;;;;;;;;4952367;28;20460;-71
2023/11/13 16:34:50;;;;;;;3.63;2.13;;;;;;;;;;4953717;29;20427;-71
2023/11/13 16:37:16;;;;;;;4.33;2.20;;;;;;;;;;4953078;29;20500;-71
2023/11/13 16:39:43;;;;;;;2.60;2.20;;;;;;;;;;4953661;28;20797;-71
2023/11/13 16:42:10;;;;;;;4.03;2.30;;;;;;;;;;4953708;28;20436;-71
2023/11/13 16:44:36;;;;;;;2.53;2.10;;;;;;;;;;4953118;28;20470;-71
2023/11/13 16:47:02;;;;;;;2.60;2.07;;;;;;;;;;4952418;29;20431;-71
2023/11/13 16:49:28;;;;;;;7.03;2.17;;;;;;;;;;4938612;28;20500;-71
2023/11/13 16:51:54;;;;;;;2.20;1.60;;;;;;;;;;4934473;29;20972;-72
2023/11/13 16:54:21;;;;;;;1.97;1.50;;;;;;;;;;4963412;28;20451;-71
2023/11/13 16:56:47;;;;;;;3.37;1.63;;;;;;;;;;4973237;28;20415;-72
2023/11/13 16:59:13;;;;;;;8.27;1.90;;;;;;;;;;4972801;28;20443;-72
2023/11/13 17:01:40;;;;;;;2.17;1.93;;;;;;;;;;4936807;28;20968;-71
2023/11/13 17:04:06;;;;;;;1.53;1.23;;;;;;;;;;4946365;28;20547;-71
2023/11/13 17:06:32;;;;;;;2.17;1.20;;;;;;;;;;4956854;28;20433;-70
2023/11/13 17:08:58;;;;;;;4.60;1.90;;;;;;;;;;4970389;28;20421;-72
2023/11/13 17:11:25;;;;;;;2.37;1.63;;;;;;;;;;4974065;28;20425;-71
2023/11/13 17:13:51;;;;;;;1.40;1.20;;;;;;;;;;4953815;28;20857;-70
2023/11/13 17:16:17;;;;;;;3.17;1.33;;;;;;;;;;4957082;29;20444;-71
2023/11/13 17:18:43;;;;;;;3.27;1.40;;;;;;;;;;4956069;28;20768;-71
2023/11/13 17:21:09;;;;;;;1.80;1.30;;;;;;;;;;4945148;29;20449;-71
2023/11/13 17:23:35;;;;;;;2.50;1.70;;;;;;;;;;4944492;28;20835;-71
2023/11/13 17:26:02;;;;;;;3.37;1.90;;;;;;;;;;4956473;29;20443;-71
2023/11/13 17:28:28;;;;;;;2.83;1.33;;;;;;;;;;4962316;28;20458;-71
2023/11/13 17:30:54;;;;;;;2.50;1.47;;;;;;;;;;4976388;28;20427;-71
2023/11/13 17:33:20;;;;;;;1.47;1.30;;;;;;;;;;4976983;28;20420;-71
2023/11/13 17:35:47;;;;;;;4.30;1.80;;;;;;;;;;4983336;28;20416;-71
2023/11/13 17:38:13;;;;;;;3.67;2.23;;;;;;;;;;4962537;28;20421;-71
2023/11/13 17:40:39;;;;;;;6.30;3.20;;;;;;;;;;4961712;28;20447;-70
2023/11/13 17:43:05;;;;;;;2.47;1.57;;;;;;;;;;4959904;28;20485;-70
2023/11/13 17:45:32;;;;;;;1.97;1.63;;;;;;;;;;4961050;29;20464;-70
2023/11/13 17:47:58;;;;;;;5.33;1.37;;;;;;;;;;4957203;29;20496;-70
2023/11/13 17:50:24;;;;;;;1.80;1.70;;;;;;;;;;4938032;29;20437;-70
2023/11/13 17:52:51;;;;;;;2.50;1.70;;;;;;;;;;4938513;29;20414;-70
2023/11/13 17:55:17;;;;;;;1.70;1.30;;;;;;;;;;4957013;28;20421;-71
2023/11/13 17:57:43;;;;;;;1.53;1.37;;;;;;;;;;4947577;29;20429;-71
2023/11/13 18:00:14;;;;;;;1.90;1.60;;;;;;;;;;4955605;28;20881;-72
2023/11/13 18:02:40;;;;;;;1.43;1.40;;;;;;;;;;4956447;29;20431;-72
2023/11/13 18:05:07;;;;;;;2.00;1.80;;;;;;;;;;4954980;28;20847;-72
2023/11/13 18:07:33;;;;;;;1.83;1.50;;;;;;;;;;4949655;29;20425;-72
2023/11/13 18:09:59;;;;;;;5.13;1.80;;;;;;;;;;4969593;29;20425;-73
2023/11/13 18:12:26;;;;;;;2.83;2.20;;;;;;;;;;4953464;29;20465;-78
2023/11/13 18:14:52;;;;;;;2.87;2.00;;;;;;;;;;4954692;29;20428;-78
2023/11/13 18:17:18;;;;;;;2.63;2.27;;;;;;;;;;4952344;29;20409;-76
2023/11/13 18:19:44;;;;;;;2.80;1.80;;;;;;;;;;4949150;29;20418;-71
2023/11/13 18:22:11;;;;;;;2.80;2.20;;;;;;;;;;4959490;29;20441;-70
2023/11/13 18:24:37;;;;;;;3.93;2.10;;;;;;;;;;4955545;29;20467;-71
2023/11/13 18:27:04;;;;;;;2.90;1.90;;;;;;;;;;4954658;29;20416;-71
2023/11/13 18:29:30;;;;;;;3.23;1.93;;;;;;;;;;4936552;29;20425;-71
2023/11/13 18:31:57;;;;;;;2.77;1.40;;;;;;;;;;4952018;29;20795;-70
2023/11/13 18:34:23;;;;;;;2.50;1.73;;;;;;;;;;4960742;28;20426;-76
2023/11/13 18:36:49;;;;;;;3.13;2.00;;;;;;;;;;4965538;29;20413;-73
2023/11/13 18:39:15;;;;;;;4.20;2.20;;;;;;;;;;4959848;28;20421;-71
2023/11/13 18:41:42;;;;;;;3.80;2.10;;;;;;;;;;4958260;29;20956;-71
2023/11/13 18:44:08;;;;;;;2.00;1.50;;;;;;;;;;4959805;28;20493;-71
2023/11/13 18:46:34;;;;;;;2.07;1.40;;;;;;;;;;4955850;29;20916;-71
2023/11/13 18:49:00;;;;;;;2.50;1.53;;;;;;;;;;4955520;29;20445;-70
2023/11/13 18:51:26;;;;;;;3.30;2.10;;;;;;;;;;4943062;29;20840;-70
2023/11/13 18:53:53;;;;;;;4.10;2.07;;;;;;;;;;4953954;29;20862;-71
2023/11/13 18:56:22;;;;;;;3.23;2.50;;;;;;;;;;4950408;28;20928;-71
2023/11/13 18:58:48;;;;;;;5.97;2.03;;;;;;;;;;4955782;28;20435;-70
2023/11/13 19:01:15;;;;;;;4.73;2.40;;;;;;;;;;4954820;28;20467;-70
2023/11/13 19:03:45;;;;;;;3.00;1.80;;;;;;;;;;4951937;28;20807;-70
2023/11/13 19:06:12;;;;;;;1.90;1.80;;;;;;;;;;4955269;28;20416;-71
2023/11/13 19:08:38;;;;;;;2.20;1.40;;;;;;;;;;4955266;28;20496;-70
2023/11/13 19:11:05;;;;;;;2.23;1.30;;;;;;;;;;4955509;28;20508;-70
2023/11/13 19:13:31;;;;;;;5.20;1.43;;;;;;;;;;4954420;28;20437;-71
2023/11/13 19:15:57;;;;;;;4.77;2.53;;;;;;;;;;4954919;28;20460;-72
2023/11/13 19:18:23;;;;;;;3.67;2.30;;;;;;;;;;4955061;28;20424;-71
2023/11/13 19:20:49;;;;;;;2.20;1.67;;;;;;;;;;4954582;28;20473;-71
2023/11/13 19:23:17;;;;;;;8.07;2.60;;;;;;;;;;4954562;28;20460;-71
2023/11/13 19:25:43;;;;;;;2.57;2.40;;;;;;;;;;4963135;28;20463;-69
2023/11/13 19:28:09;;;;;;;3.27;1.80;;;;;;;;;;4954298;28;20429;-70
2023/11/13 19:30:38;;;;;;;3.00;1.60;;;;;;;;;;4954643;28;20443;-71
2023/11/13 19:33:04;;;;;;;1.70;1.40;;;;;;;;;;4954506;28;20423;-71
2023/11/13 19:35:30;;;;;;;2.80;1.60;;;;;;;;;;4954694;28;20420;-72
2023/11/13 19:37:56;;;;;;;3.53;1.40;;;;;;;;;;4954579;28;20432;-70
2023/11/13 19:40:23;;;;;;;2.90;1.80;;;;;;;;;;4953942;28;20943;-69
2023/11/13 19:42:49;;;;;;;3.10;1.67;;;;;;;;;;4954013;28;20976;-70
2023/11/13 19:45:15;;;;;;;2.70;1.97;;;;;;;;;;4953716;28;20508;-69
2023/11/13 19:47:41;;;;;;;4.13;2.27;;;;;;;;;;4954636;28;20781;-69
2023/11/13 19:50:07;;;;;;;5.13;2.10;;;;;;;;;;4957248;28;20416;-68
2023/11/13 19:52:34;;;;;;;2.30;1.80;;;;;;;;;;4964939;28;20939;-71
2023/11/13 19:55:00;;;;;;;3.03;2.23;;;;;;;;;;4972441;28;20466;-74
2023/11/13 19:57:26;;;;;;;5.20;2.00;;;;;;;;;;4973368;28;20416;-71
2023/11/13 19:59:52;;;;;;;2.77;2.03;;;;;;;;;;4973107;28;20486;-71
2023/11/13 20:02:18;;;;;;;2.30;1.80;;;;;;;;;;4972961;28;20454;-72
2023/11/13 20:04:45;;;;;;;2.23;1.93;;;;;;;;;;4972908;28;20557;-70
2023/11/13 20:07:11;;;;;;;1.90;1.47;;;;;;;;;;4971926;28;20412;-69
2023/11/13 20:09:38;;;;;;;3.07;1.87;;;;;;;;;;4956437;28;20429;-69
2023/11/13 20:12:05;;;;;;;3.20;1.40;;;;;;;;;;4933590;29;20493;-72
2023/11/13 20:14:31;;;;;;;2.00;1.60;;;;;;;;;;4934659;29;20420;-69
2023/11/13 20:16:57;;;;;;;1.43;1.27;;;;;;;;;;4934788;29;20894;-69
2023/11/13 20:19:27;;;;;;;1.93;1.60;;;;;;;;;;4934689;29;20413;-69
2023/11/13 20:21:53;;;;;;;3.13;1.40;;;;;;;;;;4934806;29;20444;-69
2023/11/13 20:24:19;;;;;;;3.07;1.80;;;;;;;;;;4934514;29;20476;-70
2023/11/13 20:26:45;;;;;;;7.23;2.40;;;;;;;;;;4934674;29;20890;-70
2023/11/13 20:29:11;;;;;;;3.83;2.00;;;;;;;;;;4934738;29;20416;-69
2023/11/13 20:31:37;;;;;;;5.07;2.10;;;;;;;;;;4934510;29;20434;-70
2023/11/13 20:34:04;;;;;;;1.47;1.37;;;;;;;;;;4934245;29;20422;-70
2023/11/13 20:36:30;;;;;;;3.37;1.60;;;;;;;;;;4934725;29;20418;-70